Terminal Aerodrome Forecast
Issued by NWS

Home | Current Version | Previous Version | Text Only | Print | Product List | Glossary Off
Versions: 1 2 3 4 5 6 7 8 9 10 11 12 13 14 15

576
FTUS43 KUNR 132320
TAFGCC
TAF
KGCC 132320Z 1400/1424 VRB06KT P6SM VCSH SCT110
     FM140800 17011KT P6SM BKN100
     FM141700 34010KT P6SM SCT100=

USA.gov is the U.S. government's official web portal to all federal, state and local government web resources and services.